sensor_id;sensor_type;location;lat;lon;timestamp;P1;durP1;ratioP1;P2;durP2;ratioP2
8474;SDS011;4274;52.012;8.448;2022-07-22T00:00:27;71.57;;;22.30;;
8474;SDS011;4274;52.012;8.448;2022-07-22T00:02:53;72.40;;;23.30;;
8474;SDS011;4274;52.012;8.448;2022-07-22T00:05:18;68.77;;;21.37;;
8474;SDS011;4274;52.012;8.448;2022-07-22T00:07:44;75.77;;;20.20;;
8474;SDS011;4274;52.012;8.448;2022-07-22T00:10:10;73.20;;;22.00;;
8474;SDS011;4274;52.012;8.448;2022-07-22T00:12:36;73.87;;;20.70;;
8474;SDS011;4274;52.012;8.448;2022-07-22T00:15:03;68.57;;;20.90;;
8474;SDS011;4274;52.012;8.448;2022-07-22T00:17:30;72.60;;;19.20;;
8474;SDS011;4274;52.012;8.448;2022-07-22T00:19:56;64.63;;;17.00;;
8474;SDS011;4274;52.012;8.448;2022-07-22T00:22:21;68.90;;;17.10;;
8474;SDS011;4274;52.012;8.448;2022-07-22T00:24:47;61.43;;;14.30;;
8474;SDS011;4274;52.012;8.448;2022-07-22T00:27:13;58.73;;;13.50;;
8474;SDS011;4274;52.012;8.448;2022-07-22T00:29:38;62.83;;;13.10;;
8474;SDS011;4274;52.012;8.448;2022-07-22T00:32:04;55.50;;;10.60;;
8474;SDS011;4274;52.012;8.448;2022-07-22T00:34:30;59.10;;;12.60;;
8474;SDS011;4274;52.012;8.448;2022-07-22T00:36:55;57.67;;;11.00;;
8474;SDS011;4274;52.012;8.448;2022-07-22T00:39:21;59.50;;;10.73;;
8474;SDS011;4274;52.012;8.448;2022-07-22T00:41:47;59.43;;;10.43;;
8474;SDS011;4274;52.012;8.448;2022-07-22T00:44:14;56.80;;;9.80;;
8474;SDS011;4274;52.012;8.448;2022-07-22T00:46:39;57.30;;;8.90;;
8474;SDS011;4274;52.012;8.448;2022-07-22T00:49:06;55.87;;;9.00;;
8474;SDS011;4274;52.012;8.448;2022-07-22T00:51:33;55.80;;;8.80;;
8474;SDS011;4274;52.012;8.448;2022-07-22T00:53:59;56.40;;;9.13;;
8474;SDS011;4274;52.012;8.448;2022-07-22T00:56:26;59.93;;;9.30;;
8474;SDS011;4274;52.012;8.448;2022-07-22T00:58:54;53.63;;;9.10;;
8474;SDS011;4274;52.012;8.448;2022-07-22T01:01:21;60.30;;;10.23;;
8474;SDS011;4274;52.012;8.448;2022-07-22T01:03:46;57.10;;;9.40;;
8474;SDS011;4274;52.012;8.448;2022-07-22T01:06:12;57.40;;;9.90;;
8474;SDS011;4274;52.012;8.448;2022-07-22T01:08:38;56.53;;;10.00;;
8474;SDS011;4274;52.012;8.448;2022-07-22T01:11:08;54.00;;;9.20;;
8474;SDS011;4274;52.012;8.448;2022-07-22T01:13:35;59.90;;;10.20;;
8474;SDS011;4274;52.012;8.448;2022-07-22T01:16:01;58.33;;;10.07;;
8474;SDS011;4274;52.012;8.448;2022-07-22T01:18:27;57.17;;;9.10;;
8474;SDS011;4274;52.012;8.448;2022-07-22T01:20:53;57.07;;;8.93;;
8474;SDS011;4274;52.012;8.448;2022-07-22T01:23:19;60.07;;;10.00;;
8474;SDS011;4274;52.012;8.448;2022-07-22T01:25:44;58.67;;;10.07;;
8474;SDS011;4274;52.012;8.448;2022-07-22T01:28:10;58.50;;;9.40;;
8474;SDS011;4274;52.012;8.448;2022-07-22T01:30:35;58.83;;;9.50;;
8474;SDS011;4274;52.012;8.448;2022-07-22T01:33:01;59.10;;;9.67;;
8474;SDS011;4274;52.012;8.448;2022-07-22T01:35:26;57.37;;;9.17;;
8474;SDS011;4274;52.012;8.448;2022-07-22T01:37:52;58.30;;;10.40;;
8474;SDS011;4274;52.012;8.448;2022-07-22T01:40:18;56.30;;;10.43;;
8474;SDS011;4274;52.012;8.448;2022-07-22T01:42:43;57.47;;;10.40;;
8474;SDS011;4274;52.012;8.448;2022-07-22T01:45:09;59.23;;;10.23;;
8474;SDS011;4274;52.012;8.448;2022-07-22T01:47:35;57.00;;;9.70;;
8474;SDS011;4274;52.012;8.448;2022-07-22T01:50:01;55.70;;;9.80;;
8474;SDS011;4274;52.012;8.448;2022-07-22T01:52:27;58.13;;;9.90;;
8474;SDS011;4274;52.012;8.448;2022-07-22T01:54:53;55.50;;;9.37;;
8474;SDS011;4274;52.012;8.448;2022-07-22T01:57:19;56.27;;;10.23;;
8474;SDS011;4274;52.012;8.448;2022-07-22T01:59:44;56.13;;;10.13;;
8474;SDS011;4274;52.012;8.448;2022-07-22T02:02:10;56.73;;;10.80;;
8474;SDS011;4274;52.012;8.448;2022-07-22T02:04:35;57.47;;;10.20;;
8474;SDS011;4274;52.012;8.448;2022-07-22T02:07:01;57.83;;;10.73;;
8474;SDS011;4274;52.012;8.448;2022-07-22T02:09:26;56.87;;;10.43;;
8474;SDS011;4274;52.012;8.448;2022-07-22T02:11:52;54.77;;;9.20;;
8474;SDS011;4274;52.012;8.448;2022-07-22T02:14:17;56.37;;;9.37;;
8474;SDS011;4274;52.012;8.448;2022-07-22T02:16:43;57.97;;;9.73;;
8474;SDS011;4274;52.012;8.448;2022-07-22T02:19:09;57.00;;;9.70;;
8474;SDS011;4274;52.012;8.448;2022-07-22T02:21:34;55.70;;;8.50;;
8474;SDS011;4274;52.012;8.448;2022-07-22T02:24:00;57.73;;;8.27;;
8474;SDS011;4274;52.012;8.448;2022-07-22T02:26:26;54.83;;;6.77;;
8474;SDS011;4274;52.012;8.448;2022-07-22T02:28:51;52.03;;;6.63;;
8474;SDS011;4274;52.012;8.448;2022-07-22T02:31:17;57.53;;;6.43;;
8474;SDS011;4274;52.012;8.448;2022-07-22T02:33:45;50.83;;;7.07;;
8474;SDS011;4274;52.012;8.448;2022-07-22T02:36:11;56.50;;;6.07;;
8474;SDS011;4274;52.012;8.448;2022-07-22T02:38:36;51.70;;;7.03;;
8474;SDS011;4274;52.012;8.448;2022-07-22T02:41:02;55.27;;;6.83;;
8474;SDS011;4274;52.012;8.448;2022-07-22T02:43:28;50.97;;;6.90;;
8474;SDS011;4274;52.012;8.448;2022-07-22T02:45:53;52.97;;;6.70;;
8474;SDS011;4274;52.012;8.448;2022-07-22T02:48:19;50.90;;;6.67;;
8474;SDS011;4274;52.012;8.448;2022-07-22T02:50:48;54.57;;;7.10;;
8474;SDS011;4274;52.012;8.448;2022-07-22T02:53:14;50.50;;;6.47;;
8474;SDS011;4274;52.012;8.448;2022-07-22T02:55:40;51.00;;;6.53;;
8474;SDS011;4274;52.012;8.448;2022-07-22T02:58:06;54.90;;;6.63;;
8474;SDS011;4274;52.012;8.448;2022-07-22T03:00:33;59.33;;;6.80;;
8474;SDS011;4274;52.012;8.448;2022-07-22T03:03:00;52.50;;;6.90;;
8474;SDS011;4274;52.012;8.448;2022-07-22T03:05:25;55.80;;;7.33;;
8474;SDS011;4274;52.012;8.448;2022-07-22T03:07:51;51.87;;;7.70;;
8474;SDS011;4274;52.012;8.448;2022-07-22T03:10:17;53.33;;;7.63;;
8474;SDS011;4274;52.012;8.448;2022-07-22T03:12:42;51.87;;;6.90;;
8474;SDS011;4274;52.012;8.448;2022-07-22T03:15:08;53.57;;;7.13;;
8474;SDS011;4274;52.012;8.448;2022-07-22T03:17:34;55.83;;;7.90;;
8474;SDS011;4274;52.012;8.448;2022-07-22T03:20:10;56.07;;;7.70;;
8474;SDS011;4274;52.012;8.448;2022-07-22T03:22:36;54.63;;;7.53;;
8474;SDS011;4274;52.012;8.448;2022-07-22T03:25:02;51.20;;;7.93;;
8474;SDS011;4274;52.012;8.448;2022-07-22T03:27:28;59.23;;;7.93;;
8474;SDS011;4274;52.012;8.448;2022-07-22T03:29:54;53.53;;;8.47;;
8474;SDS011;4274;52.012;8.448;2022-07-22T03:32:19;60.20;;;8.43;;
8474;SDS011;4274;52.012;8.448;2022-07-22T03:34:45;57.10;;;8.80;;
8474;SDS011;4274;52.012;8.448;2022-07-22T03:37:10;56.40;;;8.77;;
8474;SDS011;4274;52.012;8.448;2022-07-22T03:39:36;55.03;;;7.97;;
8474;SDS011;4274;52.012;8.448;2022-07-22T03:42:02;52.60;;;8.53;;
8474;SDS011;4274;52.012;8.448;2022-07-22T03:44:28;55.00;;;8.17;;
8474;SDS011;4274;52.012;8.448;2022-07-22T03:46:53;56.33;;;8.53;;
8474;SDS011;4274;52.012;8.448;2022-07-22T03:49:19;54.10;;;9.23;;
8474;SDS011;4274;52.012;8.448;2022-07-22T03:51:45;57.70;;;8.07;;
8474;SDS011;4274;52.012;8.448;2022-07-22T03:54:10;60.73;;;10.23;;
8474;SDS011;4274;52.012;8.448;2022-07-22T03:56:36;54.87;;;8.93;;
8474;SDS011;4274;52.012;8.448;2022-07-22T03:59:02;58.00;;;9.27;;
8474;SDS011;4274;52.012;8.448;2022-07-22T04:01:28;54.70;;;9.43;;
8474;SDS011;4274;52.012;8.448;2022-07-22T04:03:53;50.80;;;6.93;;
8474;SDS011;4274;52.012;8.448;2022-07-22T04:06:19;54.13;;;7.30;;
8474;SDS011;4274;52.012;8.448;2022-07-22T04:08:45;51.40;;;6.70;;
8474;SDS011;4274;52.012;8.448;2022-07-22T04:11:11;53.93;;;5.90;;
8474;SDS011;4274;52.012;8.448;2022-07-22T04:13:36;50.07;;;7.17;;
8474;SDS011;4274;52.012;8.448;2022-07-22T04:16:02;53.70;;;6.37;;
8474;SDS011;4274;52.012;8.448;2022-07-22T04:18:29;55.10;;;5.70;;
8474;SDS011;4274;52.012;8.448;2022-07-22T04:20:56;51.30;;;5.27;;
8474;SDS011;4274;52.012;8.448;2022-07-22T04:23:21;47.70;;;5.07;;
8474;SDS011;4274;52.012;8.448;2022-07-22T04:25:47;48.57;;;5.13;;
8474;SDS011;4274;52.012;8.448;2022-07-22T04:28:12;50.60;;;5.73;;
8474;SDS011;4274;52.012;8.448;2022-07-22T04:30:38;51.77;;;5.33;;
8474;SDS011;4274;52.012;8.448;2022-07-22T04:33:04;52.17;;;5.03;;
8474;SDS011;4274;52.012;8.448;2022-07-22T04:35:29;51.37;;;5.13;;
8474;SDS011;4274;52.012;8.448;2022-07-22T04:37:55;56.47;;;6.50;;
8474;SDS011;4274;52.012;8.448;2022-07-22T04:40:20;50.90;;;5.60;;
8474;SDS011;4274;52.012;8.448;2022-07-22T04:42:46;51.00;;;5.50;;
8474;SDS011;4274;52.012;8.448;2022-07-22T04:45:12;59.87;;;6.30;;
8474;SDS011;4274;52.012;8.448;2022-07-22T04:47:37;47.83;;;5.47;;
8474;SDS011;4274;52.012;8.448;2022-07-22T04:50:03;56.67;;;5.83;;
8474;SDS011;4274;52.012;8.448;2022-07-22T04:52:29;57.87;;;6.20;;
8474;SDS011;4274;52.012;8.448;2022-07-22T04:54:54;52.67;;;5.90;;
8474;SDS011;4274;52.012;8.448;2022-07-22T04:57:21;51.20;;;6.03;;
8474;SDS011;4274;52.012;8.448;2022-07-22T04:59:46;52.70;;;4.53;;
8474;SDS011;4274;52.012;8.448;2022-07-22T05:02:12;55.90;;;5.53;;
8474;SDS011;4274;52.012;8.448;2022-07-22T05:04:37;50.07;;;5.40;;
8474;SDS011;4274;52.012;8.448;2022-07-22T05:07:03;49.33;;;5.40;;
8474;SDS011;4274;52.012;8.448;2022-07-22T05:09:28;55.97;;;5.60;;
8474;SDS011;4274;52.012;8.448;2022-07-22T05:11:54;53.43;;;5.43;;
8474;SDS011;4274;52.012;8.448;2022-07-22T05:14:20;50.90;;;5.90;;
8474;SDS011;4274;52.012;8.448;2022-07-22T05:16:45;47.20;;;4.90;;
8474;SDS011;4274;52.012;8.448;2022-07-22T05:19:11;56.13;;;4.87;;
8474;SDS011;4274;52.012;8.448;2022-07-22T05:21:36;52.93;;;5.70;;
8474;SDS011;4274;52.012;8.448;2022-07-22T05:24:02;52.60;;;5.97;;
8474;SDS011;4274;52.012;8.448;2022-07-22T05:26:28;53.97;;;5.70;;
8474;SDS011;4274;52.012;8.448;2022-07-22T05:28:56;50.67;;;5.57;;
8474;SDS011;4274;52.012;8.448;2022-07-22T05:31:21;50.80;;;5.17;;
8474;SDS011;4274;52.012;8.448;2022-07-22T05:33:47;51.90;;;5.93;;
8474;SDS011;4274;52.012;8.448;2022-07-22T05:36:13;51.10;;;6.10;;
8474;SDS011;4274;52.012;8.448;2022-07-22T05:38:38;50.57;;;5.80;;
8474;SDS011;4274;52.012;8.448;2022-07-22T05:41:04;52.47;;;6.07;;
8474;SDS011;4274;52.012;8.448;2022-07-22T05:43:30;53.70;;;5.77;;
8474;SDS011;4274;52.012;8.448;2022-07-22T05:45:55;51.67;;;6.50;;
8474;SDS011;4274;52.012;8.448;2022-07-22T05:48:21;51.43;;;6.80;;
8474;SDS011;4274;52.012;8.448;2022-07-22T05:50:47;60.60;;;5.83;;
8474;SDS011;4274;52.012;8.448;2022-07-22T05:53:12;53.53;;;6.37;;
8474;SDS011;4274;52.012;8.448;2022-07-22T05:55:38;49.57;;;5.40;;
8474;SDS011;4274;52.012;8.448;2022-07-22T05:58:04;59.80;;;6.17;;
8474;SDS011;4274;52.012;8.448;2022-07-22T06:00:29;56.63;;;6.47;;
8474;SDS011;4274;52.012;8.448;2022-07-22T06:02:55;51.63;;;5.93;;
8474;SDS011;4274;52.012;8.448;2022-07-22T06:05:21;58.80;;;5.83;;
8474;SDS011;4274;52.012;8.448;2022-07-22T06:07:47;57.57;;;6.07;;
8474;SDS011;4274;52.012;8.448;2022-07-22T06:10:13;55.20;;;4.93;;
8474;SDS011;4274;52.012;8.448;2022-07-22T06:12:38;50.50;;;5.50;;
8474;SDS011;4274;52.012;8.448;2022-07-22T06:15:05;53.50;;;5.80;;
8474;SDS011;4274;52.012;8.448;2022-07-22T06:17:31;63.47;;;6.03;;
8474;SDS011;4274;52.012;8.448;2022-07-22T06:19:56;54.73;;;6.30;;
8474;SDS011;4274;52.012;8.448;2022-07-22T06:22:22;51.93;;;5.43;;
8474;SDS011;4274;52.012;8.448;2022-07-22T06:24:48;52.63;;;5.73;;
8474;SDS011;4274;52.012;8.448;2022-07-22T06:27:13;52.17;;;5.13;;
8474;SDS011;4274;52.012;8.448;2022-07-22T06:29:39;48.27;;;4.43;;
8474;SDS011;4274;52.012;8.448;2022-07-22T06:32:06;48.03;;;3.87;;
8474;SDS011;4274;52.012;8.448;2022-07-22T06:34:32;45.43;;;3.47;;
8474;SDS011;4274;52.012;8.448;2022-07-22T06:36:57;46.40;;;3.40;;
8474;SDS011;4274;52.012;8.448;2022-07-22T06:39:23;45.47;;;2.90;;
8474;SDS011;4274;52.012;8.448;2022-07-22T06:41:48;47.33;;;2.77;;
8474;SDS011;4274;52.012;8.448;2022-07-22T06:44:14;46.07;;;2.80;;
8474;SDS011;4274;52.012;8.448;2022-07-22T06:46:40;48.40;;;3.70;;
8474;SDS011;4274;52.012;8.448;2022-07-22T06:49:05;46.57;;;3.77;;
8474;SDS011;4274;52.012;8.448;2022-07-22T06:51:31;48.27;;;3.17;;
8474;SDS011;4274;52.012;8.448;2022-07-22T06:53:57;44.97;;;3.30;;
8474;SDS011;4274;52.012;8.448;2022-07-22T06:56:23;46.40;;;3.17;;
8474;SDS011;4274;52.012;8.448;2022-07-22T06:58:48;46.00;;;3.30;;
8474;SDS011;4274;52.012;8.448;2022-07-22T07:01:14;45.27;;;2.77;;
8474;SDS011;4274;52.012;8.448;2022-07-22T07:03:39;46.70;;;3.27;;
8474;SDS011;4274;52.012;8.448;2022-07-22T07:06:08;47.10;;;3.80;;
8474;SDS011;4274;52.012;8.448;2022-07-22T07:08:36;48.63;;;4.20;;
8474;SDS011;4274;52.012;8.448;2022-07-22T07:11:03;49.10;;;4.63;;
8474;SDS011;4274;52.012;8.448;2022-07-22T07:13:29;49.87;;;4.93;;
8474;SDS011;4274;52.012;8.448;2022-07-22T07:15:55;48.10;;;4.93;;
8474;SDS011;4274;52.012;8.448;2022-07-22T07:18:21;52.70;;;4.97;;
8474;SDS011;4274;52.012;8.448;2022-07-22T07:20:46;51.20;;;5.43;;
8474;SDS011;4274;52.012;8.448;2022-07-22T07:23:12;54.13;;;5.87;;
8474;SDS011;4274;52.012;8.448;2022-07-22T07:25:38;53.20;;;6.10;;
8474;SDS011;4274;52.012;8.448;2022-07-22T07:28:04;54.47;;;6.97;;
8474;SDS011;4274;52.012;8.448;2022-07-22T07:30:29;56.20;;;6.33;;
8474;SDS011;4274;52.012;8.448;2022-07-22T07:32:55;60.33;;;7.17;;
8474;SDS011;4274;52.012;8.448;2022-07-22T07:35:21;54.37;;;6.37;;
8474;SDS011;4274;52.012;8.448;2022-07-22T07:37:47;54.53;;;6.80;;
8474;SDS011;4274;52.012;8.448;2022-07-22T07:40:13;55.33;;;7.20;;
8474;SDS011;4274;52.012;8.448;2022-07-22T07:42:39;53.47;;;6.70;;
8474;SDS011;4274;52.012;8.448;2022-07-22T07:45:05;54.50;;;6.40;;
8474;SDS011;4274;52.012;8.448;2022-07-22T07:47:31;54.70;;;6.67;;
8474;SDS011;4274;52.012;8.448;2022-07-22T07:49:57;55.40;;;6.53;;
8474;SDS011;4274;52.012;8.448;2022-07-22T07:52:25;57.40;;;6.53;;
8474;SDS011;4274;52.012;8.448;2022-07-22T07:54:52;49.57;;;5.90;;
8474;SDS011;4274;52.012;8.448;2022-07-22T07:57:20;52.63;;;6.60;;
8474;SDS011;4274;52.012;8.448;2022-07-22T07:59:46;52.50;;;6.60;;
8474;SDS011;4274;52.012;8.448;2022-07-22T08:02:12;54.87;;;6.40;;
8474;SDS011;4274;52.012;8.448;2022-07-22T08:04:38;57.30;;;6.73;;
8474;SDS011;4274;52.012;8.448;2022-07-22T08:07:04;60.23;;;6.63;;
8474;SDS011;4274;52.012;8.448;2022-07-22T08:09:31;51.33;;;6.27;;
8474;SDS011;4274;52.012;8.448;2022-07-22T08:11:57;56.57;;;5.80;;
8474;SDS011;4274;52.012;8.448;2022-07-22T08:14:23;51.03;;;5.97;;
8474;SDS011;4274;52.012;8.448;2022-07-22T08:16:49;55.97;;;6.53;;
8474;SDS011;4274;52.012;8.448;2022-07-22T08:19:15;57.63;;;6.63;;
8474;SDS011;4274;52.012;8.448;2022-07-22T08:21:41;55.63;;;6.10;;
8474;SDS011;4274;52.012;8.448;2022-07-22T08:24:10;62.90;;;6.80;;
8474;SDS011;4274;52.012;8.448;2022-07-22T08:26:36;51.47;;;6.60;;
8474;SDS011;4274;52.012;8.448;2022-07-22T08:29:02;53.10;;;5.67;;
8474;SDS011;4274;52.012;8.448;2022-07-22T08:31:30;53.97;;;5.90;;
8474;SDS011;4274;52.012;8.448;2022-07-22T08:33:59;54.83;;;5.83;;
8474;SDS011;4274;52.012;8.448;2022-07-22T08:36:26;52.40;;;6.00;;
8474;SDS011;4274;52.012;8.448;2022-07-22T08:38:51;56.50;;;6.40;;
8474;SDS011;4274;52.012;8.448;2022-07-22T08:41:18;59.93;;;7.03;;
8474;SDS011;4274;52.012;8.448;2022-07-22T08:43:45;56.97;;;6.70;;
8474;SDS011;4274;52.012;8.448;2022-07-22T08:46:12;49.60;;;5.90;;
8474;SDS011;4274;52.012;8.448;2022-07-22T08:48:38;56.33;;;7.10;;
8474;SDS011;4274;52.012;8.448;2022-07-22T08:51:04;48.93;;;5.77;;
8474;SDS011;4274;52.012;8.448;2022-07-22T08:53:31;53.43;;;6.10;;
8474;SDS011;4274;52.012;8.448;2022-07-22T08:55:56;54.53;;;5.97;;
8474;SDS011;4274;52.012;8.448;2022-07-22T08:58:24;56.80;;;5.60;;
8474;SDS011;4274;52.012;8.448;2022-07-22T09:03:34;55.87;;;6.37;;
8474;SDS011;4274;52.012;8.448;2022-07-22T09:06:11;53.63;;;5.83;;
8474;SDS011;4274;52.012;8.448;2022-07-22T09:08:56;57.03;;;6.73;;
8474;SDS011;4274;52.012;8.448;2022-07-22T09:11:24;53.97;;;6.63;;
8474;SDS011;4274;52.012;8.448;2022-07-22T09:13:53;57.97;;;6.53;;
8474;SDS011;4274;52.012;8.448;2022-07-22T09:16:40;55.30;;;6.63;;
8474;SDS011;4274;52.012;8.448;2022-07-22T09:19:05;60.93;;;7.77;;
8474;SDS011;4274;52.012;8.448;2022-07-22T09:21:31;55.13;;;7.37;;
8474;SDS011;4274;52.012;8.448;2022-07-22T09:23:59;55.20;;;6.70;;
8474;SDS011;4274;52.012;8.448;2022-07-22T09:26:31;54.13;;;7.60;;
8474;SDS011;4274;52.012;8.448;2022-07-22T09:28:58;59.43;;;6.60;;
8474;SDS011;4274;52.012;8.448;2022-07-22T09:31:28;50.90;;;6.40;;
8474;SDS011;4274;52.012;8.448;2022-07-22T09:33:56;51.70;;;6.60;;
8474;SDS011;4274;52.012;8.448;2022-07-22T09:36:22;57.20;;;7.70;;
8474;SDS011;4274;52.012;8.448;2022-07-22T09:38:48;53.23;;;6.87;;
8474;SDS011;4274;52.012;8.448;2022-07-22T09:41:14;53.83;;;6.73;;
8474;SDS011;4274;52.012;8.448;2022-07-22T09:43:40;55.17;;;7.03;;
8474;SDS011;4274;52.012;8.448;2022-07-22T09:46:06;55.90;;;6.40;;
8474;SDS011;4274;52.012;8.448;2022-07-22T09:48:33;50.53;;;5.97;;
8474;SDS011;4274;52.012;8.448;2022-07-22T09:50:58;59.00;;;6.50;;
8474;SDS011;4274;52.012;8.448;2022-07-22T09:53:25;53.40;;;6.00;;
8474;SDS011;4274;52.012;8.448;2022-07-22T09:55:55;59.93;;;5.90;;
8474;SDS011;4274;52.012;8.448;2022-07-22T09:58:22;54.13;;;6.27;;
8474;SDS011;4274;52.012;8.448;2022-07-22T10:00:48;55.07;;;5.70;;
8474;SDS011;4274;52.012;8.448;2022-07-22T10:03:29;56.80;;;5.93;;
8474;SDS011;4274;52.012;8.448;2022-07-22T10:05:56;51.73;;;5.00;;
8474;SDS011;4274;52.012;8.448;2022-07-22T10:08:23;52.63;;;5.70;;
8474;SDS011;4274;52.012;8.448;2022-07-22T10:10:50;49.83;;;5.93;;
8474;SDS011;4274;52.012;8.448;2022-07-22T10:13:17;53.37;;;5.57;;
8474;SDS011;4274;52.012;8.448;2022-07-22T10:15:43;51.97;;;5.33;;
8474;SDS011;4274;52.012;8.448;2022-07-22T10:18:13;50.43;;;5.10;;
8474;SDS011;4274;52.012;8.448;2022-07-22T10:20:41;49.20;;;5.20;;
8474;SDS011;4274;52.012;8.448;2022-07-22T10:23:07;51.57;;;4.80;;
8474;SDS011;4274;52.012;8.448;2022-07-22T10:25:54;49.17;;;5.40;;
8474;SDS011;4274;52.012;8.448;2022-07-22T10:33:52;49.40;;;4.73;;
8474;SDS011;4274;52.012;8.448;2022-07-22T10:36:29;51.47;;;4.53;;
8474;SDS011;4274;52.012;8.448;2022-07-22T10:41:33;55.13;;;5.10;;
8474;SDS011;4274;52.012;8.448;2022-07-22T10:44:03;54.50;;;5.00;;
8474;SDS011;4274;52.012;8.448;2022-07-22T10:49:14;52.63;;;5.00;;
8474;SDS011;4274;52.012;8.448;2022-07-22T10:52:06;50.73;;;4.77;;
8474;SDS011;4274;52.012;8.448;2022-07-22T10:54:33;48.90;;;4.37;;
8474;SDS011;4274;52.012;8.448;2022-07-22T10:56:59;55.63;;;4.67;;
8474;SDS011;4274;52.012;8.448;2022-07-22T10:59:25;58.50;;;4.53;;
8474;SDS011;4274;52.012;8.448;2022-07-22T11:01:51;53.57;;;4.33;;
8474;SDS011;4274;52.012;8.448;2022-07-22T11:04:23;58.67;;;4.73;;
8474;SDS011;4274;52.012;8.448;2022-07-22T11:06:51;51.83;;;4.67;;
8474;SDS011;4274;52.012;8.448;2022-07-22T11:09:22;49.70;;;4.60;;
8474;SDS011;4274;52.012;8.448;2022-07-22T11:11:55;47.87;;;3.90;;
8474;SDS011;4274;52.012;8.448;2022-07-22T11:14:26;51.47;;;5.33;;
8474;SDS011;4274;52.012;8.448;2022-07-22T11:17:03;50.70;;;4.80;;
8474;SDS011;4274;52.012;8.448;2022-07-22T11:19:33;49.17;;;3.90;;
8474;SDS011;4274;52.012;8.448;2022-07-22T11:22:06;51.07;;;5.43;;
8474;SDS011;4274;52.012;8.448;2022-07-22T11:24:36;49.53;;;4.67;;
8474;SDS011;4274;52.012;8.448;2022-07-22T11:27:03;48.93;;;4.50;;
8474;SDS011;4274;52.012;8.448;2022-07-22T11:29:34;52.63;;;5.00;;
8474;SDS011;4274;52.012;8.448;2022-07-22T11:32:05;53.97;;;4.70;;
8474;SDS011;4274;52.012;8.448;2022-07-22T11:34:32;51.80;;;4.60;;
8474;SDS011;4274;52.012;8.448;2022-07-22T11:37:00;52.07;;;5.10;;
8474;SDS011;4274;52.012;8.448;2022-07-22T11:39:27;50.73;;;4.90;;
8474;SDS011;4274;52.012;8.448;2022-07-22T11:41:54;53.40;;;4.43;;
8474;SDS011;4274;52.012;8.448;2022-07-22T11:44:23;56.13;;;4.63;;
8474;SDS011;4274;52.012;8.448;2022-07-22T11:46:50;49.20;;;4.87;;
8474;SDS011;4274;52.012;8.448;2022-07-22T11:49:19;51.27;;;4.33;;
8474;SDS011;4274;52.012;8.448;2022-07-22T11:51:46;51.10;;;4.43;;
8474;SDS011;4274;52.012;8.448;2022-07-22T11:54:12;51.63;;;5.13;;
8474;SDS011;4274;52.012;8.448;2022-07-22T11:56:38;51.60;;;4.33;;
8474;SDS011;4274;52.012;8.448;2022-07-22T11:59:04;48.50;;;4.10;;
8474;SDS011;4274;52.012;8.448;2022-07-22T12:01:32;50.83;;;4.07;;
8474;SDS011;4274;52.012;8.448;2022-07-22T12:04:00;48.40;;;4.57;;
8474;SDS011;4274;52.012;8.448;2022-07-22T12:06:31;54.60;;;5.13;;
8474;SDS011;4274;52.012;8.448;2022-07-22T12:11:34;47.97;;;3.70;;
8474;SDS011;4274;52.012;8.448;2022-07-22T12:14:08;50.50;;;5.00;;
8474;SDS011;4274;52.012;8.448;2022-07-22T12:16:35;52.00;;;4.50;;
8474;SDS011;4274;52.012;8.448;2022-07-22T12:19:03;53.30;;;5.30;;
8474;SDS011;4274;52.012;8.448;2022-07-22T12:21:34;54.73;;;4.93;;
8474;SDS011;4274;52.012;8.448;2022-07-22T12:31:41;50.27;;;4.43;;
8474;SDS011;4274;52.012;8.448;2022-07-22T12:34:28;51.13;;;4.47;;
8474;SDS011;4274;52.012;8.448;2022-07-22T12:36:59;59.80;;;5.13;;
8474;SDS011;4274;52.012;8.448;2022-07-22T12:39:27;54.63;;;4.80;;
8474;SDS011;4274;52.012;8.448;2022-07-22T12:41:54;51.30;;;4.90;;
8474;SDS011;4274;52.012;8.448;2022-07-22T12:44:21;54.93;;;4.80;;
8474;SDS011;4274;52.012;8.448;2022-07-22T12:46:49;53.43;;;5.00;;
8474;SDS011;4274;52.012;8.448;2022-07-22T12:49:20;50.00;;;5.37;;
8474;SDS011;4274;52.012;8.448;2022-07-22T12:54:35;50.00;;;4.70;;
8474;SDS011;4274;52.012;8.448;2022-07-22T12:57:01;54.70;;;5.10;;
8474;SDS011;4274;52.012;8.448;2022-07-22T12:59:27;51.40;;;4.63;;
8474;SDS011;4274;52.012;8.448;2022-07-22T13:01:53;50.00;;;5.20;;
8474;SDS011;4274;52.012;8.448;2022-07-22T13:04:18;53.33;;;4.20;;
8474;SDS011;4274;52.012;8.448;2022-07-22T13:06:44;54.93;;;4.37;;
8474;SDS011;4274;52.012;8.448;2022-07-22T13:09:10;53.67;;;4.70;;
8474;SDS011;4274;52.012;8.448;2022-07-22T13:11:35;49.13;;;4.30;;
8474;SDS011;4274;52.012;8.448;2022-07-22T13:14:04;50.47;;;4.77;;
8474;SDS011;4274;52.012;8.448;2022-07-22T13:16:30;50.80;;;4.40;;
8474;SDS011;4274;52.012;8.448;2022-07-22T13:18:57;52.83;;;4.77;;
8474;SDS011;4274;52.012;8.448;2022-07-22T13:21:22;49.60;;;4.43;;
8474;SDS011;4274;52.012;8.448;2022-07-22T13:23:48;56.97;;;5.03;;
8474;SDS011;4274;52.012;8.448;2022-07-22T13:26:14;54.77;;;4.87;;
8474;SDS011;4274;52.012;8.448;2022-07-22T13:28:39;52.07;;;4.30;;
8474;SDS011;4274;52.012;8.448;2022-07-22T13:31:05;50.10;;;4.70;;
8474;SDS011;4274;52.012;8.448;2022-07-22T13:33:30;51.90;;;5.57;;
8474;SDS011;4274;52.012;8.448;2022-07-22T13:35:56;52.03;;;4.60;;
8474;SDS011;4274;52.012;8.448;2022-07-22T13:38:22;49.47;;;4.90;;
8474;SDS011;4274;52.012;8.448;2022-07-22T13:40:47;50.20;;;5.30;;
8474;SDS011;4274;52.012;8.448;2022-07-22T13:43:17;49.77;;;4.93;;
8474;SDS011;4274;52.012;8.448;2022-07-22T13:45:43;52.13;;;5.00;;
8474;SDS011;4274;52.012;8.448;2022-07-22T13:48:09;52.77;;;6.10;;
8474;SDS011;4274;52.012;8.448;2022-07-22T13:50:35;59.40;;;6.60;;
8474;SDS011;4274;52.012;8.448;2022-07-22T13:53:00;55.10;;;6.00;;
8474;SDS011;4274;52.012;8.448;2022-07-22T13:55:26;57.87;;;5.47;;
8474;SDS011;4274;52.012;8.448;2022-07-22T13:57:52;54.70;;;6.63;;
8474;SDS011;4274;52.012;8.448;2022-07-22T14:00:18;51.50;;;5.50;;
8474;SDS011;4274;52.012;8.448;2022-07-22T14:02:44;51.80;;;5.97;;
8474;SDS011;4274;52.012;8.448;2022-07-22T14:05:10;51.20;;;5.57;;
8474;SDS011;4274;52.012;8.448;2022-07-22T14:07:36;52.70;;;5.43;;
8474;SDS011;4274;52.012;8.448;2022-07-22T14:10:02;50.43;;;5.37;;
8474;SDS011;4274;52.012;8.448;2022-07-22T14:12:28;52.30;;;5.80;;
8474;SDS011;4274;52.012;8.448;2022-07-22T14:14:54;51.57;;;5.90;;
8474;SDS011;4274;52.012;8.448;2022-07-22T14:17:19;56.00;;;6.03;;
8474;SDS011;4274;52.012;8.448;2022-07-22T14:19:45;50.00;;;5.80;;
8474;SDS011;4274;52.012;8.448;2022-07-22T14:22:11;52.37;;;5.87;;
8474;SDS011;4274;52.012;8.448;2022-07-22T14:24:37;52.97;;;6.17;;
8474;SDS011;4274;52.012;8.448;2022-07-22T14:27:02;54.20;;;6.07;;
8474;SDS011;4274;52.012;8.448;2022-07-22T14:29:28;53.37;;;6.50;;
8474;SDS011;4274;52.012;8.448;2022-07-22T14:31:53;52.73;;;5.60;;
8474;SDS011;4274;52.012;8.448;2022-07-22T14:34:19;51.60;;;6.00;;
8474;SDS011;4274;52.012;8.448;2022-07-22T14:36:45;55.53;;;5.87;;
8474;SDS011;4274;52.012;8.448;2022-07-22T14:39:10;53.83;;;6.07;;
8474;SDS011;4274;52.012;8.448;2022-07-22T14:41:36;57.20;;;6.10;;
8474;SDS011;4274;52.012;8.448;2022-07-22T14:44:02;52.27;;;5.53;;
8474;SDS011;4274;52.012;8.448;2022-07-22T14:46:27;49.20;;;4.80;;
8474;SDS011;4274;52.012;8.448;2022-07-22T14:48:53;54.00;;;5.50;;
8474;SDS011;4274;52.012;8.448;2022-07-22T14:51:19;54.40;;;5.93;;
8474;SDS011;4274;52.012;8.448;2022-07-22T14:53:46;52.00;;;4.83;;
8474;SDS011;4274;52.012;8.448;2022-07-22T14:56:12;53.10;;;5.30;;
8474;SDS011;4274;52.012;8.448;2022-07-22T14:58:37;53.17;;;5.77;;
8474;SDS011;4274;52.012;8.448;2022-07-22T15:01:03;51.63;;;5.40;;
8474;SDS011;4274;52.012;8.448;2022-07-22T15:03:28;52.27;;;5.33;;
8474;SDS011;4274;52.012;8.448;2022-07-22T15:05:54;50.10;;;5.23;;
8474;SDS011;4274;52.012;8.448;2022-07-22T15:08:20;50.77;;;5.10;;
8474;SDS011;4274;52.012;8.448;2022-07-22T15:10:46;56.33;;;4.90;;
8474;SDS011;4274;52.012;8.448;2022-07-22T15:13:11;51.43;;;4.77;;
8474;SDS011;4274;52.012;8.448;2022-07-22T15:15:37;52.73;;;5.07;;
8474;SDS011;4274;52.012;8.448;2022-07-22T15:18:03;52.17;;;5.17;;
8474;SDS011;4274;52.012;8.448;2022-07-22T15:20:29;54.30;;;5.30;;
8474;SDS011;4274;52.012;8.448;2022-07-22T15:22:55;53.17;;;5.53;;